Time;durP1;ratioP1;P1;durP2;ratioP2;P2;SDS_P1;SDS_P2;PMS_P1;PMS_P2;Temp;Humidity;BMP_temperature;BMP_pressure;BME280_temperature;BME280_humidity;BME280_pressure;Samples;Min_cycle;Max_cycle;Signal;HPM_P1;HPM_P2
2023/05/06 00:01:48;;;;;;;10.07;7.07;;;;;;;;;;5100924;28;20539;-59
2023/05/06 00:04:14;;;;;;;9.93;6.70;;;;;;;;;;5097808;28;20090;-60
2023/05/06 00:06:41;;;;;;;13.23;7.03;;;;;;;;;;5093053;28;20071;-59
2023/05/06 00:09:08;;;;;;;10.10;7.28;;;;;;;;;;5090881;28;20044;-59
2023/05/06 00:11:34;;;;;;;9.80;6.32;;;;;;;;;;5103500;28;20497;-59
2023/05/06 00:14:00;;;;;;;9.43;6.45;;;;;;;;;;5099622;28;20056;-59
2023/05/06 00:16:26;;;;;;;9.52;6.88;;;;;;;;;;5098878;28;20050;-59
2023/05/06 00:18:52;;;;;;;9.20;6.18;;;;;;;;;;5095042;28;20072;-59
2023/05/06 00:21:18;;;;;;;10.98;7.97;;;;;;;;;;5092856;28;20056;-59
2023/05/06 00:23:44;;;;;;;13.07;7.65;;;;;;;;;;5093066;28;20048;-59
2023/05/06 00:26:11;;;;;;;12.10;7.68;;;;;;;;;;5096824;28;20036;-59
2023/05/06 00:28:37;;;;;;;8.10;6.38;;;;;;;;;;5096917;28;20035;-60
2023/05/06 00:31:03;;;;;;;8.82;6.50;;;;;;;;;;5106856;28;20062;-60
2023/05/06 00:33:29;;;;;;;8.23;6.32;;;;;;;;;;5101705;28;20454;-59
2023/05/06 00:35:55;;;;;;;9.25;6.07;;;;;;;;;;5091756;28;20070;-59
2023/05/06 00:38:22;;;;;;;9.40;6.65;;;;;;;;;;5093861;28;20169;-59
2023/05/06 00:40:49;;;;;;;11.55;7.90;;;;;;;;;;5093094;28;20066;-59
2023/05/06 00:43:15;;;;;;;10.13;7.45;;;;;;;;;;5100770;28;20111;-60
2023/05/06 00:45:42;;;;;;;9.23;7.18;;;;;;;;;;5093930;28;20519;-59
2023/05/06 00:48:08;;;;;;;9.38;8.15;;;;;;;;;;5093618;28;20047;-59
2023/05/06 00:50:35;;;;;;;9.38;6.68;;;;;;;;;;5098008;28;20131;-59
2023/05/06 00:53:03;;;;;;;11.68;7.05;;;;;;;;;;5096124;28;20161;-59
2023/05/06 00:55:29;;;;;;;9.80;6.50;;;;;;;;;;5098789;28;20076;-59
2023/05/06 00:57:56;;;;;;;10.25;7.03;;;;;;;;;;5099812;28;20373;-59
2023/05/06 01:00:22;;;;;;;12.60;8.13;;;;;;;;;;5097418;28;20108;-59
2023/05/06 01:02:50;;;;;;;11.00;7.72;;;;;;;;;;5096251;28;20313;-59
2023/05/06 01:05:17;;;;;;;11.18;7.20;;;;;;;;;;5089372;28;20048;-59
2023/05/06 01:07:52;;;;;;;10.82;7.80;;;;;;;;;;5096816;28;20048;-59
2023/05/06 01:10:27;;;;;;;8.85;6.45;;;;;;;;;;5096981;28;20046;-59
2023/05/06 01:13:16;;;;;;;8.85;7.60;;;;;;;;;;5097326;28;20045;-59
2023/05/06 01:15:46;;;;;;;8.98;7.07;;;;;;;;;;5087653;28;20044;-59
2023/05/06 01:18:17;;;;;;;11.68;7.97;;;;;;;;;;5090435;28;20074;-59
2023/05/06 01:20:50;;;;;;;8.55;7.57;;;;;;;;;;5094938;28;20553;-59
2023/05/06 01:23:17;;;;;;;8.77;6.88;;;;;;;;;;5093647;28;20039;-59
2023/05/06 01:25:43;;;;;;;9.35;7.55;;;;;;;;;;5062067;28;20152;-59
2023/05/06 01:28:10;;;;;;;10.40;8.05;;;;;;;;;;5101799;28;20067;-59
2023/05/06 01:30:43;;;;;;;10.27;8.43;;;;;;;;;;5095874;28;20055;-59
2023/05/06 01:33:21;;;;;;;10.82;7.70;;;;;;;;;;5098246;28;20063;-59
2023/05/06 01:35:58;;;;;;;10.10;7.43;;;;;;;;;;5095879;28;20070;-59
2023/05/06 01:38:51;;;;;;;11.05;8.52;;;;;;;;;;5091300;28;20040;-58
2023/05/06 01:41:17;;;;;;;13.93;8.37;;;;;;;;;;5090661;28;20043;-59
2023/05/06 01:43:46;;;;;;;12.25;8.18;;;;;;;;;;5096246;28;20877;-59
2023/05/06 01:46:18;;;;;;;12.77;8.77;;;;;;;;;;5091856;28;20393;-60
2023/05/06 01:48:45;;;;;;;12.27;9.07;;;;;;;;;;5101456;28;20351;-60
2023/05/06 01:51:11;;;;;;;13.23;9.35;;;;;;;;;;5092998;28;20454;-59
2023/05/06 01:53:38;;;;;;;12.98;9.13;;;;;;;;;;5094721;28;20044;-60
2023/05/06 01:56:04;;;;;;;13.50;8.70;;;;;;;;;;5091945;28;20036;-59
2023/05/06 01:58:30;;;;;;;13.02;9.32;;;;;;;;;;5069122;28;20032;-59
2023/05/06 02:00:57;;;;;;;10.32;8.00;;;;;;;;;;5088768;28;20077;-60
2023/05/06 02:03:23;;;;;;;14.50;8.30;;;;;;;;;;5093194;28;20229;-60
2023/05/06 02:05:49;;;;;;;14.32;9.35;;;;;;;;;;5098870;28;20040;-59
2023/05/06 02:08:15;;;;;;;12.27;9.15;;;;;;;;;;5094388;28;20043;-59
2023/05/06 02:10:41;;;;;;;10.75;8.38;;;;;;;;;;5099976;28;20354;-59
2023/05/06 02:13:08;;;;;;;13.77;8.68;;;;;;;;;;5094941;28;20051;-59
2023/05/06 02:15:35;;;;;;;11.80;8.98;;;;;;;;;;5096669;28;20043;-59
2023/05/06 02:18:01;;;;;;;14.57;8.23;;;;;;;;;;5094652;28;20506;-59
2023/05/06 02:20:27;;;;;;;13.65;9.75;;;;;;;;;;5097785;28;20036;-59
2023/05/06 02:22:53;;;;;;;13.50;9.02;;;;;;;;;;5099632;28;20027;-59
2023/05/06 02:25:19;;;;;;;11.40;9.07;;;;;;;;;;5091804;28;20040;-59
2023/05/06 02:27:45;;;;;;;12.55;8.82;;;;;;;;;;5093425;28;20071;-59
2023/05/06 02:30:12;;;;;;;14.18;9.52;;;;;;;;;;5096772;28;20039;-59
2023/05/06 02:32:38;;;;;;;12.85;9.52;;;;;;;;;;5093508;28;20048;-60
2023/05/06 02:35:04;;;;;;;13.60;10.25;;;;;;;;;;5094202;28;20044;-58
2023/05/06 02:37:30;;;;;;;13.80;9.80;;;;;;;;;;5095958;28;20127;-59
2023/05/06 02:39:56;;;;;;;12.55;9.18;;;;;;;;;;5089497;28;20048;-59
2023/05/06 02:42:23;;;;;;;13.25;9.45;;;;;;;;;;5092798;28;20611;-59
2023/05/06 02:44:49;;;;;;;13.60;9.10;;;;;;;;;;5077145;28;20191;-60
2023/05/06 02:47:15;;;;;;;12.40;9.55;;;;;;;;;;5098109;28;20108;-59
2023/05/06 02:49:41;;;;;;;14.27;9.20;;;;;;;;;;5093616;28;20221;-59
2023/05/06 02:52:07;;;;;;;12.35;9.35;;;;;;;;;;5098808;28;20467;-59
2023/05/06 02:54:33;;;;;;;14.35;11.00;;;;;;;;;;5093665;28;20185;-59
2023/05/06 02:57:00;;;;;;;16.42;10.85;;;;;;;;;;5099878;28;20197;-69
2023/05/06 02:59:26;;;;;;;13.75;9.70;;;;;;;;;;5095528;28;20448;-70
2023/05/06 03:01:52;;;;;;;13.02;8.85;;;;;;;;;;5094809;28;20055;-70
2023/05/06 03:04:18;;;;;;;15.25;10.52;;;;;;;;;;5089078;28;20090;-69
2023/05/06 03:06:44;;;;;;;13.30;10.13;;;;;;;;;;5092469;28;20075;-70
2023/05/06 03:09:11;;;;;;;14.43;10.85;;;;;;;;;;5099275;28;20093;-69
2023/05/06 03:11:37;;;;;;;12.95;9.73;;;;;;;;;;5091078;28;20097;-69
2023/05/06 03:14:03;;;;;;;11.63;9.40;;;;;;;;;;5089877;28;20470;-70
2023/05/06 03:16:29;;;;;;;12.05;10.15;;;;;;;;;;5088957;28;20074;-70
2023/05/06 03:18:55;;;;;;;15.52;10.68;;;;;;;;;;5095359;28;20486;-70
2023/05/06 03:21:21;;;;;;;15.18;11.48;;;;;;;;;;5099813;28;20036;-70
2023/05/06 03:23:47;;;;;;;16.55;10.63;;;;;;;;;;5095376;28;20398;-69
2023/05/06 03:26:13;;;;;;;14.43;11.23;;;;;;;;;;5101047;28;20548;-70
2023/05/06 03:28:41;;;;;;;14.60;10.32;;;;;;;;;;5095097;28;20082;-69
2023/05/06 03:31:07;;;;;;;16.83;12.60;;;;;;;;;;5092548;28;20047;-70
2023/05/06 03:33:33;;;;;;;17.88;11.70;;;;;;;;;;5102567;28;20126;-70
2023/05/06 03:35:59;;;;;;;17.05;12.00;;;;;;;;;;5103354;28;20396;-69
2023/05/06 03:38:25;;;;;;;16.25;11.82;;;;;;;;;;5094357;28;20040;-69
2023/05/06 03:40:52;;;;;;;16.88;11.75;;;;;;;;;;5098976;28;20123;-69
2023/05/06 03:43:18;;;;;;;14.40;11.27;;;;;;;;;;5106097;28;20032;-69
2023/05/06 03:45:45;;;;;;;15.18;11.13;;;;;;;;;;5103091;28;20131;-70
2023/05/06 03:48:11;;;;;;;16.45;12.40;;;;;;;;;;5093959;28;20394;-69
2023/05/06 03:50:37;;;;;;;17.05;11.48;;;;;;;;;;5100025;28;20031;-70
2023/05/06 03:53:04;;;;;;;17.65;12.18;;;;;;;;;;5103054;28;20047;-70
2023/05/06 03:55:30;;;;;;;16.45;11.23;;;;;;;;;;5097584;28;20052;-69
2023/05/06 03:57:56;;;;;;;18.15;12.23;;;;;;;;;;5097305;28;20642;-70
2023/05/06 04:00:23;;;;;;;20.58;12.10;;;;;;;;;;5090974;28;20521;-70
2023/05/06 04:02:49;;;;;;;14.25;10.75;;;;;;;;;;5080605;28;20272;-70
2023/05/06 04:05:15;;;;;;;20.30;12.27;;;;;;;;;;5076760;28;20045;-70
2023/05/06 04:07:41;;;;;;;15.77;11.48;;;;;;;;;;5075730;28;20040;-69
2023/05/06 04:10:07;;;;;;;15.68;12.57;;;;;;;;;;5073104;28;20058;-71
2023/05/06 04:12:34;;;;;;;17.77;11.68;;;;;;;;;;5072873;28;20040;-70
2023/05/06 04:15:00;;;;;;;14.68;11.45;;;;;;;;;;5077424;28;20155;-70
2023/05/06 04:17:26;;;;;;;15.77;10.82;;;;;;;;;;5077970;28;20406;-70
2023/05/06 04:19:56;;;;;;;17.73;11.43;;;;;;;;;;5081383;28;20131;-70
2023/05/06 04:22:22;;;;;;;18.52;12.20;;;;;;;;;;5086940;28;20414;-70
2023/05/06 04:24:49;;;;;;;18.45;11.88;;;;;;;;;;5080272;28;20066;-70
2023/05/06 04:27:15;;;;;;;16.17;11.38;;;;;;;;;;5062705;28;20090;-70
2023/05/06 04:29:41;;;;;;;16.25;11.63;;;;;;;;;;5082917;28;20139;-70
2023/05/06 04:32:09;;;;;;;17.42;12.13;;;;;;;;;;5078258;28;20050;-70
2023/05/06 04:34:35;;;;;;;17.77;13.27;;;;;;;;;;5072685;28;20048;-70
2023/05/06 04:37:02;;;;;;;22.05;13.32;;;;;;;;;;5071292;28;20577;-70
2023/05/06 04:39:28;;;;;;;17.23;13.48;;;;;;;;;;5068415;28;20048;-70
2023/05/06 04:41:54;;;;;;;17.10;12.00;;;;;;;;;;5081693;28;20567;-70
2023/05/06 04:44:21;;;;;;;16.70;11.65;;;;;;;;;;5081936;28;20051;-70
2023/05/06 04:46:47;;;;;;;15.50;10.25;;;;;;;;;;5072193;28;20084;-70
2023/05/06 04:49:13;;;;;;;16.90;12.13;;;;;;;;;;5073042;28;20044;-70
2023/05/06 04:51:39;;;;;;;20.08;13.00;;;;;;;;;;5082971;28;20044;-70
2023/05/06 04:54:05;;;;;;;12.77;9.45;;;;;;;;;;5073731;28;20055;-70
2023/05/06 04:56:32;;;;;;;16.02;11.13;;;;;;;;;;5070172;28;20078;-70
2023/05/06 04:58:59;;;;;;;13.40;10.32;;;;;;;;;;5075458;28;20123;-70
2023/05/06 05:01:25;;;;;;;13.77;10.77;;;;;;;;;;5087472;28;20493;-70
2023/05/06 05:03:51;;;;;;;15.93;11.73;;;;;;;;;;5094435;28;20072;-70
2023/05/06 05:06:17;;;;;;;15.02;11.48;;;;;;;;;;5095854;28;20036;-70
2023/05/06 05:08:43;;;;;;;14.55;10.75;;;;;;;;;;5091925;28;20571;-70
2023/05/06 05:11:09;;;;;;;17.55;11.65;;;;;;;;;;5100849;28;20148;-69
2023/05/06 05:13:35;;;;;;;15.68;12.52;;;;;;;;;;5094081;28;20073;-70
2023/05/06 05:16:02;;;;;;;17.00;12.35;;;;;;;;;;5091106;28;20035;-70
2023/05/06 05:18:28;;;;;;;17.02;12.20;;;;;;;;;;5096967;28;20032;-70
2023/05/06 05:20:54;;;;;;;15.80;11.82;;;;;;;;;;5102849;28;20557;-68
2023/05/06 05:23:20;;;;;;;15.75;10.68;;;;;;;;;;5092558;28;20047;-70
2023/05/06 05:25:46;;;;;;;15.30;12.32;;;;;;;;;;5089472;28;20460;-70
2023/05/06 05:28:12;;;;;;;14.98;12.15;;;;;;;;;;5098971;28;20237;-71
2023/05/06 05:30:38;;;;;;;15.48;12.55;;;;;;;;;;5092274;28;20050;-71
2023/05/06 05:33:04;;;;;;;14.93;10.90;;;;;;;;;;5102266;28;20048;-70
2023/05/06 05:35:31;;;;;;;16.67;11.02;;;;;;;;;;5092433;28;20047;-70
2023/05/06 05:37:57;;;;;;;13.65;10.40;;;;;;;;;;5091583;28;20044;-69
2023/05/06 05:40:23;;;;;;;14.63;10.45;;;;;;;;;;5092318;28;20055;-70
2023/05/06 05:42:49;;;;;;;15.00;11.05;;;;;;;;;;5090880;28;20066;-70
2023/05/06 05:45:15;;;;;;;15.10;9.82;;;;;;;;;;5103091;28;20035;-71
2023/05/06 05:47:42;;;;;;;15.27;9.45;;;;;;;;;;5096995;28;20044;-70
2023/05/06 05:50:08;;;;;;;13.75;10.10;;;;;;;;;;5097460;28;20097;-70
2023/05/06 05:52:34;;;;;;;12.75;9.63;;;;;;;;;;5099113;28;20482;-71
2023/05/06 05:55:00;;;;;;;14.27;8.73;;;;;;;;;;5093045;28;20150;-71
2023/05/06 05:57:26;;;;;;;11.70;7.88;;;;;;;;;;5096155;28;20375;-70
2023/05/06 05:59:52;;;;;;;11.25;7.85;;;;;;;;;;5090564;28;20065;-70
2023/05/06 06:02:19;;;;;;;14.50;9.50;;;;;;;;;;5089888;28;20078;-70
2023/05/06 06:04:45;;;;;;;14.77;9.00;;;;;;;;;;5093522;28;20065;-71
2023/05/06 06:07:11;;;;;;;15.10;9.52;;;;;;;;;;5095169;28;20067;-70
2023/05/06 06:09:37;;;;;;;13.50;8.38;;;;;;;;;;5088722;28;20044;-71
2023/05/06 06:12:03;;;;;;;12.70;9.20;;;;;;;;;;5093852;28;20035;-70
2023/05/06 06:14:29;;;;;;;12.73;9.13;;;;;;;;;;5092610;28;20550;-70
2023/05/06 06:16:55;;;;;;;13.95;9.00;;;;;;;;;;5090965;28;20062;-70
2023/05/06 06:19:22;;;;;;;13.18;9.18;;;;;;;;;;5088169;28;20486;-69
2023/05/06 06:21:48;;;;;;;14.38;9.38;;;;;;;;;;5095243;28;20096;-70
2023/05/06 06:24:14;;;;;;;11.82;9.15;;;;;;;;;;5090719;28;20039;-70
2023/05/06 06:26:40;;;;;;;12.68;8.48;;;;;;;;;;5091340;28;20040;-70
2023/05/06 06:29:06;;;;;;;12.10;8.25;;;;;;;;;;5094967;28;20032;-70
2023/05/06 06:31:33;;;;;;;13.10;8.07;;;;;;;;;;5095771;28;20070;-70
2023/05/06 06:33:59;;;;;;;10.60;7.20;;;;;;;;;;5099398;28;20146;-70
2023/05/06 06:36:25;;;;;;;13.02;8.77;;;;;;;;;;5096752;28;20519;-70
2023/05/06 06:38:52;;;;;;;9.60;7.07;;;;;;;;;;5091568;28;20067;-70
2023/05/06 06:41:17;;;;;;;9.43;7.40;;;16.60;99.90;;;;;;5095589;28;20050;-71
2023/05/06 06:43:43;;;;;;;8.73;6.43;;;;;;;;;;5092667;28;20040;-71
2023/05/06 06:46:09;;;;;;;10.20;8.25;;;;;;;;;;5093605;28;20039;-70
2023/05/06 06:48:35;;;;;;;14.10;7.35;;;12.60;99.90;;;;;;5095568;28;20043;-70
2023/05/06 06:51:01;;;;;;;10.23;7.00;;;12.60;99.90;;;;;;5096801;28;20546;-70
2023/05/06 06:53:27;;;;;;;11.98;6.45;;;12.60;99.90;;;;;;5094424;28;20047;-70
2023/05/06 06:55:53;;;;;;;9.00;6.40;;;12.60;99.90;;;;;;5089111;28;20043;-70
2023/05/06 06:58:18;;;;;;;8.52;5.80;;;12.60;99.90;;;;;;5093234;28;20036;-70
2023/05/06 07:00:44;;;;;;;9.23;5.75;;;12.70;99.90;;;;;;5091650;28;20079;-69
2023/05/06 07:03:10;;;;;;;8.43;6.18;;;12.70;99.90;;;;;;5089719;28;20047;-69
2023/05/06 07:05:36;;;;;;;8.40;5.55;;;12.70;99.90;;;;;;5093020;28;20035;-69
2023/05/06 07:08:08;;;;;;;7.57;5.55;;;12.70;99.90;;;;;;5085428;28;20435;-69
2023/05/06 07:10:39;;;;;;;8.45;4.97;;;12.80;99.90;;;;;;5084830;28;20676;-69
2023/05/06 07:13:05;;;;;;;7.25;4.25;;;12.80;99.90;;;;;;5076954;28;20131;-69
2023/05/06 07:15:31;;;;;;;8.98;6.18;;;12.80;99.90;;;;;;5084754;28;20219;-69
2023/05/06 07:17:56;;;;;;;8.60;5.82;;;12.80;99.90;;;;;;5089724;28;20044;-69
2023/05/06 07:20:23;;;;;;;8.63;6.30;;;;;;;;;;5092736;28;20074;-69
2023/05/06 07:22:49;;;;;;;7.45;5.63;;;;;;;;;;5086715;28;20050;-69
2023/05/06 07:25:15;;;;;;;10.45;6.65;;;;;;;;;;5090933;28;20036;-69
2023/05/06 07:27:42;;;;;;;9.52;6.63;;;;;;;;;;5095321;28;20047;-69
2023/05/06 07:30:08;;;;;;;8.70;6.25;;;;;;;;;;5095742;28;20042;-69
2023/05/06 07:32:34;;;;;;;12.30;6.68;;;;;;;;;;5100977;28;20096;-70
2023/05/06 07:35:00;;;;;;;8.15;5.22;;;;;;;;;;5087876;28;20472;-69
2023/05/06 07:37:27;;;;;;;8.90;6.30;;;;;;;;;;5085503;28;20044;-68
2023/05/06 07:39:53;;;;;;;8.23;6.32;;;;;;;;;;5088884;28;20608;-70
2023/05/06 07:42:19;;;;;;;8.40;6.63;;;;;;;;;;5094707;28;20039;-69
2023/05/06 07:44:45;;;;;;;8.65;5.63;;;;;;;;;;5090465;28;20040;-69
2023/05/06 07:47:11;;;;;;;11.38;5.78;;;;;;;;;;5104568;28;20050;-69
2023/05/06 07:49:37;;;;;;;8.43;5.70;;;;;;;;;;5093676;28;20094;-69
2023/05/06 07:52:04;;;;;;;8.63;5.88;;;;;;;;;;5098933;28;20039;-69
2023/05/06 07:54:30;;;;;;;8.88;6.13;;;;;;;;;;5096649;28;20048;-69
2023/05/06 07:56:56;;;;;;;9.32;5.50;;;;;;;;;;5091934;28;20101;-69
2023/05/06 07:59:22;;;;;;;9.05;6.28;;;;;;;;;;5088274;28;20083;-69
2023/05/06 08:01:49;;;;;;;8.27;5.35;;;;;;;;;;5087370;28;20556;-69
2023/05/06 08:04:16;;;;;;;10.02;5.72;;;;;;;;;;5086316;28;20127;-69
2023/05/06 08:06:42;;;;;;;7.53;5.85;;;;;;;;;;5096312;28;20040;-69
2023/05/06 08:09:08;;;;;;;11.27;5.40;;;;;;;;;;5090577;28;20039;-70
2023/05/06 08:11:34;;;;;;;9.60;6.15;;;;;;;;;;5076396;28;20082;-70
2023/05/06 08:14:00;;;;;;;6.47;5.63;;;;;;;;;;5067324;28;20050;-69
2023/05/06 08:16:27;;;;;;;7.43;5.18;;;;;;;;;;5094909;28;20058;-69
2023/05/06 08:18:53;;;;;;;9.25;5.82;;;;;;;;;;5090964;28;20032;-69
2023/05/06 08:21:19;;;;;;;8.32;6.03;;;;;;;;;;5089068;28;20723;-69
2023/05/06 08:23:45;;;;;;;8.60;6.90;;;;;;;;;;5102778;28;20038;-69
2023/05/06 08:26:11;;;;;;;7.00;5.43;;;;;;;;;;5096252;28;20047;-69
2023/05/06 08:28:38;;;;;;;7.18;5.75;;;;;;;;;;5092910;28;20305;-69
2023/05/06 08:31:04;;;;;;;9.27;5.93;;;;;;;;;;5096555;28;20115;-69
2023/05/06 08:33:30;;;;;;;9.82;5.93;;;;;;;;;;5092096;28;20062;-69
2023/05/06 08:35:57;;;;;;;10.50;6.68;;;;;;;;;;5096421;28;20528;-69
2023/05/06 08:38:24;;;;;;;8.65;6.80;;;;;;;;;;5092921;28;20662;-70
2023/05/06 08:40:51;;;;;;;10.63;7.00;;;;;;;;;;5102610;28;20040;-70
2023/05/06 08:43:20;;;;;;;9.80;8.13;;;;;;;;;;5097384;28;20067;-69
2023/05/06 08:45:46;;;;;;;8.52;7.28;;;;;;;;;;5070805;28;20083;-70
2023/05/06 08:48:12;;;;;;;8.82;6.47;;;;;;;;;;5101165;28;20044;-70
2023/05/06 08:50:41;;;;;;;11.05;6.47;;;;;;;;;;5095277;28;20075;-70
2023/05/06 08:53:10;;;;;;;9.85;5.97;;;;;;;;;;5093683;28;20130;-69
2023/05/06 08:55:36;;;;;;;8.95;6.57;;;;;;;;;;5093193;27;20048;-70
2023/05/06 08:58:03;;;;;;;9.23;6.43;;;;;;;;;;5101960;28;20055;-69
2023/05/06 09:00:29;;;;;;;10.18;6.03;;;;;;;;;;5093733;28;21052;-70
2023/05/06 09:02:55;;;;;;;7.40;5.35;;;;;;;;;;5096153;28;20046;-69
2023/05/06 09:05:21;;;;;;;7.10;5.70;;;;;;;;;;5090588;28;20166;-71
2023/05/06 09:07:47;;;;;;;7.60;6.25;;;;;;;;;;5095438;28;20054;-70
2023/05/06 09:10:14;;;;;;;10.45;6.88;;;;;;;;;;5088493;28;20126;-70
2023/05/06 09:12:40;;;;;;;10.85;8.23;;;;;;;;;;5098308;28;20072;-70
2023/05/06 09:15:09;;;;;;;10.20;7.25;;;;;;;;;;5090459;28;20055;-71
2023/05/06 09:17:35;;;;;;;10.40;7.75;;;;;;;;;;5098257;28;20043;-70
2023/05/06 09:20:02;;;;;;;9.85;6.57;;;;;;;;;;5096648;28;20035;-70
2023/05/06 09:22:29;;;;;;;10.50;6.97;;;;;;;;;;5097494;28;20044;-71
2023/05/06 09:24:59;;;;;;;9.55;7.75;;;;;;;;;;5075979;28;20123;-71
2023/05/06 09:27:26;;;;;;;11.48;7.88;;;;;;;;;;5103889;28;20090;-71
2023/05/06 09:30:03;;;;;;;12.20;6.88;;;;;;;;;;5102649;28;20123;-71
2023/05/06 09:32:30;;;;;;;8.52;6.03;;;;;;;;;;5089870;28;20772;-71
2023/05/06 09:35:00;;;;;;;12.45;8.55;;;;;;;;;;5096668;28;20138;-70
2023/05/06 09:37:26;;;;;;;9.35;7.47;;;;;;;;;;5094971;28;20042;-70
2023/05/06 09:39:56;;;;;;;10.55;7.65;;;;;;;;;;5091907;28;20036;-71
2023/05/06 09:42:22;;;;;;;14.77;9.10;;;;;;;;;;5088090;28;20149;-71
2023/05/06 09:44:49;;;;;;;12.43;9.48;;;;;;;;;;5090768;28;20126;-71
2023/05/06 09:47:15;;;;;;;12.38;9.65;;;;;;;;;;5091168;28;20072;-71
2023/05/06 09:49:41;;;;;;;14.57;8.82;;;;;;;;;;5091336;28;20556;-71
2023/05/06 09:52:08;;;;;;;12.82;8.82;;;;;;;;;;5077844;28;20043;-71
2023/05/06 09:54:34;;;;;;;10.25;8.23;;;;;;;;;;5082126;28;20046;-71
2023/05/06 09:57:01;;;;;;;13.10;9.63;;;;;;;;;;5091614;28;20066;-71
2023/05/06 09:59:28;;;;;;;10.52;8.25;;;;;;;;;;5094326;28;20051;-71
2023/05/06 10:01:55;;;;;;;12.68;9.90;;;;;;;;;;5090859;28;20048;-71
2023/05/06 10:04:25;;;;;;;13.70;7.90;;;;;;;;;;5090064;28;20055;-71
2023/05/06 10:06:55;;;;;;;11.98;8.25;;;;;;;;;;5089963;28;20081;-70
2023/05/06 10:09:23;;;;;;;11.13;9.02;;;;;;;;;;5088618;28;20472;-71
2023/05/06 10:11:51;;;;;;;13.57;10.40;;;;;;;;;;5092138;28;20114;-71
2023/05/06 10:14:18;;;;;;;21.15;11.27;;;;;;;;;;5096386;28;20051;-71
2023/05/06 10:16:45;;;;;;;16.25;10.68;;;;;;;;;;5086327;28;20040;-71
2023/05/06 10:19:14;;;;;;;14.63;10.98;;;;;;;;;;5088532;28;20051;-69
2023/05/06 10:21:43;;;;;;;13.93;10.95;;;;;;;;;;5094664;28;20118;-69
2023/05/06 10:24:11;;;;;;;16.23;11.10;;;;;;;;;;5103371;28;20070;-71
2023/05/06 10:26:38;;;;;;;12.10;10.23;;;;;;;;;;5089275;28;20044;-70
2023/05/06 10:29:08;;;;;;;14.65;10.13;;;;;;;;;;5094358;28;20562;-69
2023/05/06 10:31:36;;;;;;;14.65;11.95;;;;;;;;;;5088955;28;20496;-70
2023/05/06 10:34:04;;;;;;;15.32;10.88;;;;;;;;;;5089544;28;20048;-69
2023/05/06 10:36:32;;;;;;;14.05;9.90;;;;;;;;;;5084199;28;20065;-70
2023/05/06 10:39:00;;;;;;;14.13;11.27;;;;;;;;;;5086618;28;20123;-69
2023/05/06 10:41:27;;;;;;;16.77;11.85;;;;;;;;;;5097386;28;20555;-70
2023/05/06 10:43:58;;;;;;;16.42;12.07;;;;;;;;;;5092150;28;20044;-70
2023/05/06 10:46:28;;;;;;;15.55;11.13;;;;;;;;;;5086788;28;20114;-70
2023/05/06 10:48:57;;;;;;;14.13;11.20;;;;;;;;;;5096436;28;20075;-69
2023/05/06 10:51:25;;;;;;;13.32;10.30;;;12.90;99.90;;;;;;5097175;28;20043;-70
2023/05/06 10:54:03;;;;;;;13.05;10.60;;;17.90;99.90;;;;;;5092907;28;20044;-70
2023/05/06 10:56:38;;;;;;;19.70;11.80;;;17.80;99.90;;;;;;5089345;28;20044;-69
2023/05/06 10:59:11;;;;;;;18.50;11.75;;;17.80;99.90;;;;;;5096142;28;20055;-70
2023/05/06 11:01:38;;;;;;;15.50;10.75;;;17.80;99.90;;;;;;5093120;28;20062;-69
2023/05/06 11:04:10;;;;;;;14.43;10.93;;;17.70;99.90;;;;;;5087602;28;20055;-69
2023/05/06 11:06:41;;;;;;;13.03;10.50;;;17.70;99.90;;;;;;5086528;28;20035;-70
2023/05/06 11:09:19;;;;;;;15.13;11.43;;;17.70;99.90;;;;;;5097480;28;20036;-69
2023/05/06 11:12:01;;;;;;;14.20;11.40;;;17.70;99.90;;;;;;5085549;28;20047;-71
2023/05/06 11:14:31;;;;;;;15.68;11.43;;;17.70;99.90;;;;;;5090524;28;20068;-71
2023/05/06 11:16:58;;;;;;;13.77;11.20;;;17.70;99.90;;;;;;5090089;28;20043;-71
2023/05/06 11:19:29;;;;;;;13.02;10.65;;;17.70;99.90;;;;;;5090096;28;20036;-70
2023/05/06 11:21:57;;;;;;;13.63;9.38;;;17.60;99.90;;;;;;5093605;28;20048;-60
2023/05/06 11:24:28;;;;;;;15.55;10.30;;;17.60;99.90;;;;;;5094666;28;20039;-59
2023/05/06 11:26:56;;;;;;;15.75;11.02;;;17.60;99.90;;;;;;5089127;28;20040;-59
2023/05/06 11:29:23;;;;;;;15.43;11.73;;;17.60;99.90;;;;;;5099644;28;20051;-60
2023/05/06 11:31:49;;;;;;;14.88;11.13;;;17.60;99.90;;;;;;5089840;28;20044;-59
2023/05/06 11:34:21;;;;;;;15.68;12.65;;;17.60;99.90;;;;;;5093399;28;20044;-59
2023/05/06 11:36:57;;;;;;;17.30;12.82;;;17.70;99.90;;;;;;5100439;28;20028;-59
2023/05/06 11:39:29;;;;;;;16.02;11.70;;;17.70;99.90;;;;;;5088432;28;20127;-60
2023/05/06 11:41:56;;;;;;;15.52;11.73;;;17.60;99.90;;;;;;5092491;28;20058;-60
2023/05/06 11:44:35;;;;;;;13.20;10.65;;;17.70;99.90;;;;;;5089989;28;20044;-61
2023/05/06 11:47:04;;;;;;;14.57;10.63;;;17.80;99.90;;;;;;5095069;28;20089;-61
2023/05/06 11:49:52;;;;;;;13.85;10.50;;;17.80;99.90;;;;;;5105199;28;20220;-62
2023/05/06 11:52:22;;;;;;;20.05;10.52;;;17.80;99.90;;;;;;5099471;28;20421;-61
2023/05/06 11:54:51;;;;;;;17.00;9.35;;;17.80;99.90;;;;;;5094760;27;20120;-60
2023/05/06 11:57:19;;;;;;;15.10;10.45;;;17.80;99.90;;;;;;5094866;28;20721;-60
2023/05/06 11:59:45;;;;;;;10.88;8.50;;;17.70;99.90;;;;;;5093136;28;20040;-61
2023/05/06 12:02:12;;;;;;;13.52;9.32;;;17.70;99.90;;;;;;5092107;28;20060;-60
2023/05/06 12:04:43;;;;;;;9.10;6.55;;;17.70;99.90;;;;;;5097354;28;20461;-60
2023/05/06 12:07:16;;;;;;;11.35;5.80;;;17.70;99.90;;;;;;5092756;27;20074;-61
2023/05/06 12:09:47;;;;;;;7.00;4.30;;;17.70;99.90;;;;;;5089603;28;20059;-60
2023/05/06 12:12:20;;;;;;;7.95;4.88;;;17.70;99.90;;;;;;5093054;28;20039;-61
2023/05/06 12:14:48;;;;;;;9.40;6.28;;;17.70;99.90;;;;;;5101544;28;20113;-60
2023/05/06 12:17:14;;;;;;;5.88;4.30;;;17.70;99.90;;;;;;5098217;28;20097;-61
2023/05/06 12:19:40;;;;;;;7.65;3.90;;;17.70;99.90;;;;;;5092137;28;20036;-61
2023/05/06 12:22:25;;;;;;;7.05;3.63;;;17.80;99.90;;;;;;5095529;28;20039;-60
2023/05/06 12:24:51;;;;;;;6.50;3.75;;;17.80;99.90;;;;;;5099553;28;20036;-60
2023/05/06 12:27:34;;;;;;;7.53;5.53;;;17.80;99.90;;;;;;5092024;28;20101;-61
2023/05/06 12:30:00;;;;;;;9.93;6.55;;;17.80;99.90;;;;;;5091361;28;20184;-61
2023/05/06 12:32:26;;;;;;;9.40;7.13;;;17.70;99.90;;;;;;5099172;28;20035;-61
2023/05/06 12:34:51;;;;;;;10.45;6.85;;;17.70;99.90;;;;;;5097343;28;20094;-61
2023/05/06 12:37:26;;;;;;;11.38;7.88;;;17.70;99.90;;;;;;5090733;28;20035;-61
2023/05/06 12:39:52;;;;;;;13.57;6.68;;;17.70;99.90;;;;;;5092355;28;20122;-60
2023/05/06 12:42:21;;;;;;;8.00;5.55;;;17.70;99.90;;;;;;5095763;28;20035;-61
2023/05/06 12:44:48;;;;;;;8.43;5.10;;;17.70;99.90;;;;;;5090179;28;20076;-61
2023/05/06 12:47:22;;;;;;;7.25;5.68;;;17.70;99.90;;;;;;5096194;28;20044;-61
2023/05/06 12:49:57;;;;;;;8.77;6.15;;;17.80;99.90;;;;;;5091856;28;20080;-61
2023/05/06 12:52:26;;;;;;;8.77;5.72;;;17.80;99.90;;;;;;5097728;28;20455;-61
2023/05/06 12:54:52;;;;;;;5.25;4.28;;;17.90;99.90;;;;;;5090344;28;20036;-61
2023/05/06 12:57:18;;;;;;;7.63;4.78;;;17.90;99.90;;;;;;5094547;28;20039;-61
2023/05/06 12:59:44;;;;;;;7.53;4.55;;;17.90;99.90;;;;;;5096348;28;20405;-60
2023/05/06 13:02:11;;;;;;;7.47;4.28;;;17.90;99.90;;;;;;5092378;28;20075;-61
2023/05/06 13:04:37;;;;;;;9.60;4.93;;;17.90;99.90;;;;;;5089242;28;20056;-61
2023/05/06 13:07:03;;;;;;;9.90;5.50;;;17.90;99.90;;;;;;5092899;28;20039;-61
2023/05/06 13:09:29;;;;;;;7.95;5.47;;;17.90;99.90;;;;;;5090843;28;20044;-61
2023/05/06 13:11:55;;;;;;;7.28;4.15;;;17.80;99.90;;;;;;5089224;28;20119;-61
2023/05/06 13:14:21;;;;;;;5.95;4.45;;;17.80;99.90;;;;;;5092636;28;20127;-61
2023/05/06 13:16:47;;;;;;;8.77;4.53;;;17.80;99.90;;;;;;5101556;28;20040;-60
2023/05/06 13:19:13;;;;;;;9.77;4.45;;;17.80;99.90;;;;;;5094693;28;20051;-59
2023/05/06 13:21:40;;;;;;;8.07;5.00;;;17.80;99.90;;;;;;5093742;28;20482;-59
2023/05/06 13:24:06;;;;;;;8.45;5.22;;;17.80;99.90;;;;;;5100084;28;20112;-61
2023/05/06 13:26:35;;;;;;;11.02;6.35;;;17.80;99.90;;;;;;5094673;28;20070;-61
2023/05/06 13:29:02;;;;;;;7.97;5.50;;;17.80;99.90;;;;;;5093151;28;20048;-61
2023/05/06 13:31:29;;;;;;;9.40;6.15;;;17.80;99.90;;;;;;5098098;28;20040;-61
2023/05/06 13:33:55;;;;;;;8.93;5.57;;;17.80;99.90;;;;;;5089410;28;20551;-59
2023/05/06 13:36:22;;;;;;;7.78;5.05;;;17.90;99.90;;;;;;5090907;28;20063;-59
2023/05/06 13:38:48;;;;;;;11.25;6.00;;;17.90;99.90;;;;;;5090703;28;20032;-59
2023/05/06 13:41:14;;;;;;;9.88;6.47;;;18.00;99.90;;;;;;5088350;28;20070;-59
2023/05/06 13:43:40;;;;;;;13.73;6.22;;;18.10;99.90;;;;;;5092933;28;20070;-59
2023/05/06 13:46:07;;;;;;;8.77;6.20;;;18.20;99.90;;;;;;5061363;28;20550;-59
2023/05/06 13:48:33;;;;;;;9.75;6.10;;;18.20;99.90;;;;;;5080645;28;20392;-60
2023/05/06 13:50:59;;;;;;;12.45;5.47;;;18.30;99.90;;;;;;5078381;28;20069;-60
2023/05/06 13:53:25;;;;;;;8.43;6.45;;;18.30;99.90;;;;;;5092964;28;20572;-59
2023/05/06 13:55:51;;;;;;;10.38;7.10;;;18.30;99.90;;;;;;5090963;28;20542;-59
2023/05/06 13:58:18;;;;;;;7.32;5.68;;;18.40;99.90;;;;;;5088950;28;20463;-60